sensor_id;sensor_type;location;lat;lon;timestamp;temperature;humidity
5899;DHT22;2975;50.956;6.962;2023-10-31T00:00:44;12.50;99.90
5899;DHT22;2975;50.956;6.962;2023-10-31T00:03:10;12.50;99.90
5899;DHT22;2975;50.956;6.962;2023-10-31T00:05:36;12.50;99.90
5899;DHT22;2975;50.956;6.962;2023-10-31T00:08:01;12.50;99.90
5899;DHT22;2975;50.956;6.962;2023-10-31T00:10:27;12.50;99.90
5899;DHT22;2975;50.956;6.962;2023-10-31T00:12:53;12.50;99.90
5899;DHT22;2975;50.956;6.962;2023-10-31T00:15:18;12.50;99.90
5899;DHT22;2975;50.956;6.962;2023-10-31T00:17:44;12.50;99.90
5899;DHT22;2975;50.956;6.962;2023-10-31T00:20:09;12.50;99.90
5899;DHT22;2975;50.956;6.962;2023-10-31T00:22:35;12.50;99.90
5899;DHT22;2975;50.956;6.962;2023-10-31T00:25:01;12.40;99.90
5899;DHT22;2975;50.956;6.962;2023-10-31T00:27:26;12.40;99.90
5899;DHT22;2975;50.956;6.962;2023-10-31T00:29:52;12.50;99.90
5899;DHT22;2975;50.956;6.962;2023-10-31T00:32:18;12.50;99.90
5899;DHT22;2975;50.956;6.962;2023-10-31T00:34:43;12.50;99.90
5899;DHT22;2975;50.956;6.962;2023-10-31T00:37:09;12.40;99.90
5899;DHT22;2975;50.956;6.962;2023-10-31T00:39:34;12.40;99.90
5899;DHT22;2975;50.956;6.962;2023-10-31T00:42:00;12.40;99.90
5899;DHT22;2975;50.956;6.962;2023-10-31T00:44:25;12.40;99.90
5899;DHT22;2975;50.956;6.962;2023-10-31T00:46:51;12.40;99.90
5899;DHT22;2975;50.956;6.962;2023-10-31T00:49:17;12.40;99.90
5899;DHT22;2975;50.956;6.962;2023-10-31T00:51:42;12.30;99.90
5899;DHT22;2975;50.956;6.962;2023-10-31T00:54:08;12.40;99.90
5899;DHT22;2975;50.956;6.962;2023-10-31T00:56:33;12.40;99.90
5899;DHT22;2975;50.956;6.962;2023-10-31T00:59:00;12.30;99.90
5899;DHT22;2975;50.956;6.962;2023-10-31T01:01:25;12.30;99.90
5899;DHT22;2975;50.956;6.962;2023-10-31T01:03:51;12.30;99.90
5899;DHT22;2975;50.956;6.962;2023-10-31T01:06:16;12.20;99.90
5899;DHT22;2975;50.956;6.962;2023-10-31T01:08:42;12.20;99.90
5899;DHT22;2975;50.956;6.962;2023-10-31T01:11:08;12.20;99.90
5899;DHT22;2975;50.956;6.962;2023-10-31T01:13:33;12.20;99.90
5899;DHT22;2975;50.956;6.962;2023-10-31T01:15:59;12.20;99.90
5899;DHT22;2975;50.956;6.962;2023-10-31T01:18:24;12.10;99.90
5899;DHT22;2975;50.956;6.962;2023-10-31T01:20:50;12.00;99.90
5899;DHT22;2975;50.956;6.962;2023-10-31T01:23:16;12.00;99.90
5899;DHT22;2975;50.956;6.962;2023-10-31T01:25:41;11.80;99.90
5899;DHT22;2975;50.956;6.962;2023-10-31T01:28:07;11.70;99.90
5899;DHT22;2975;50.956;6.962;2023-10-31T01:30:32;11.60;99.90
5899;DHT22;2975;50.956;6.962;2023-10-31T01:32:58;11.70;99.90
5899;DHT22;2975;50.956;6.962;2023-10-31T01:35:24;11.50;99.90
5899;DHT22;2975;50.956;6.962;2023-10-31T01:37:50;11.50;99.90
5899;DHT22;2975;50.956;6.962;2023-10-31T01:40:15;11.40;99.90
5899;DHT22;2975;50.956;6.962;2023-10-31T01:42:41;11.40;99.90
5899;DHT22;2975;50.956;6.962;2023-10-31T01:45:07;11.40;99.90
5899;DHT22;2975;50.956;6.962;2023-10-31T01:47:33;11.40;99.90
5899;DHT22;2975;50.956;6.962;2023-10-31T01:49:59;11.40;99.90
5899;DHT22;2975;50.956;6.962;2023-10-31T01:52:25;11.40;99.90
5899;DHT22;2975;50.956;6.962;2023-10-31T01:54:51;11.40;99.90
5899;DHT22;2975;50.956;6.962;2023-10-31T01:57:19;11.40;99.90
5899;DHT22;2975;50.956;6.962;2023-10-31T01:59:46;11.40;99.90
5899;DHT22;2975;50.956;6.962;2023-10-31T02:02:12;11.40;99.90
5899;DHT22;2975;50.956;6.962;2023-10-31T02:04:38;11.40;99.90
5899;DHT22;2975;50.956;6.962;2023-10-31T02:07:03;11.40;99.90
5899;DHT22;2975;50.956;6.962;2023-10-31T02:09:29;11.40;99.90
5899;DHT22;2975;50.956;6.962;2023-10-31T02:11:55;11.40;99.90
5899;DHT22;2975;50.956;6.962;2023-10-31T02:14:25;11.40;99.90
5899;DHT22;2975;50.956;6.962;2023-10-31T02:16:50;11.50;99.90
5899;DHT22;2975;50.956;6.962;2023-10-31T02:19:19;11.50;99.90
5899;DHT22;2975;50.956;6.962;2023-10-31T02:21:45;11.50;99.90
5899;DHT22;2975;50.956;6.962;2023-10-31T02:24:11;11.60;99.90
5899;DHT22;2975;50.956;6.962;2023-10-31T02:26:36;11.70;99.90
5899;DHT22;2975;50.956;6.962;2023-10-31T02:29:02;11.70;99.90
5899;DHT22;2975;50.956;6.962;2023-10-31T02:31:28;11.60;99.90
5899;DHT22;2975;50.956;6.962;2023-10-31T02:33:54;11.60;99.90
5899;DHT22;2975;50.956;6.962;2023-10-31T02:36:20;11.60;99.90
5899;DHT22;2975;50.956;6.962;2023-10-31T02:38:46;11.50;99.90
5899;DHT22;2975;50.956;6.962;2023-10-31T02:41:12;11.40;99.90
5899;DHT22;2975;50.956;6.962;2023-10-31T02:43:39;11.40;99.90
5899;DHT22;2975;50.956;6.962;2023-10-31T02:46:05;11.30;99.90
5899;DHT22;2975;50.956;6.962;2023-10-31T02:48:31;11.20;99.90
5899;DHT22;2975;50.956;6.962;2023-10-31T02:51:04;11.20;99.90
5899;DHT22;2975;50.956;6.962;2023-10-31T02:53:30;11.20;99.90
5899;DHT22;2975;50.956;6.962;2023-10-31T02:55:55;11.30;99.90
5899;DHT22;2975;50.956;6.962;2023-10-31T02:58:21;11.20;99.90
5899;DHT22;2975;50.956;6.962;2023-10-31T03:00:46;11.20;99.90
5899;DHT22;2975;50.956;6.962;2023-10-31T03:03:12;11.30;99.90
5899;DHT22;2975;50.956;6.962;2023-10-31T03:05:38;11.20;99.90
5899;DHT22;2975;50.956;6.962;2023-10-31T03:08:03;11.20;99.90
5899;DHT22;2975;50.956;6.962;2023-10-31T03:10:29;11.20;99.90
5899;DHT22;2975;50.956;6.962;2023-10-31T03:12:54;11.20;99.90
5899;DHT22;2975;50.956;6.962;2023-10-31T03:15:20;11.20;99.90
5899;DHT22;2975;50.956;6.962;2023-10-31T03:17:46;11.20;99.90
5899;DHT22;2975;50.956;6.962;2023-10-31T03:20:12;11.20;99.90
5899;DHT22;2975;50.956;6.962;2023-10-31T03:22:37;11.20;99.90
5899;DHT22;2975;50.956;6.962;2023-10-31T03:25:03;11.20;99.90
5899;DHT22;2975;50.956;6.962;2023-10-31T03:27:29;11.20;99.90
5899;DHT22;2975;50.956;6.962;2023-10-31T03:29:55;11.20;99.90
5899;DHT22;2975;50.956;6.962;2023-10-31T03:32:20;11.30;99.90
5899;DHT22;2975;50.956;6.962;2023-10-31T03:34:46;11.30;99.90
5899;DHT22;2975;50.956;6.962;2023-10-31T03:37:11;11.30;99.90
5899;DHT22;2975;50.956;6.962;2023-10-31T03:39:37;11.30;99.90
5899;DHT22;2975;50.956;6.962;2023-10-31T03:42:03;11.30;99.90
5899;DHT22;2975;50.956;6.962;2023-10-31T03:44:30;11.30;99.90
5899;DHT22;2975;50.956;6.962;2023-10-31T03:46:56;11.30;99.90
5899;DHT22;2975;50.956;6.962;2023-10-31T03:49:21;11.30;99.90
5899;DHT22;2975;50.956;6.962;2023-10-31T03:51:47;11.30;99.90
5899;DHT22;2975;50.956;6.962;2023-10-31T03:54:13;11.30;99.90
5899;DHT22;2975;50.956;6.962;2023-10-31T03:56:40;11.40;99.90
5899;DHT22;2975;50.956;6.962;2023-10-31T03:59:05;11.30;99.90
5899;DHT22;2975;50.956;6.962;2023-10-31T04:01:31;11.40;99.90
5899;DHT22;2975;50.956;6.962;2023-10-31T04:03:57;11.30;99.90
5899;DHT22;2975;50.956;6.962;2023-10-31T04:06:22;11.40;99.90
5899;DHT22;2975;50.956;6.962;2023-10-31T04:08:48;11.40;99.90
5899;DHT22;2975;50.956;6.962;2023-10-31T04:11:13;11.40;99.90
5899;DHT22;2975;50.956;6.962;2023-10-31T04:13:39;11.40;99.90
5899;DHT22;2975;50.956;6.962;2023-10-31T04:16:04;11.40;99.90
5899;DHT22;2975;50.956;6.962;2023-10-31T04:18:30;11.50;99.90
5899;DHT22;2975;50.956;6.962;2023-10-31T04:20:56;11.50;99.90
5899;DHT22;2975;50.956;6.962;2023-10-31T04:23:21;11.50;99.90
5899;DHT22;2975;50.956;6.962;2023-10-31T04:25:47;11.50;99.90
5899;DHT22;2975;50.956;6.962;2023-10-31T04:28:12;11.50;99.90
5899;DHT22;2975;50.956;6.962;2023-10-31T04:30:39;11.60;99.90
5899;DHT22;2975;50.956;6.962;2023-10-31T04:33:04;11.60;99.90
5899;DHT22;2975;50.956;6.962;2023-10-31T04:35:30;11.60;99.90
5899;DHT22;2975;50.956;6.962;2023-10-31T04:37:55;11.60;99.90
5899;DHT22;2975;50.956;6.962;2023-10-31T04:40:22;11.60;99.90
5899;DHT22;2975;50.956;6.962;2023-10-31T04:42:47;11.60;99.90
5899;DHT22;2975;50.956;6.962;2023-10-31T04:45:13;11.60;99.90
5899;DHT22;2975;50.956;6.962;2023-10-31T04:47:39;11.60;99.90
5899;DHT22;2975;50.956;6.962;2023-10-31T04:50:05;11.50;99.90
5899;DHT22;2975;50.956;6.962;2023-10-31T04:52:31;11.50;99.90
5899;DHT22;2975;50.956;6.962;2023-10-31T04:54:56;11.60;99.90
5899;DHT22;2975;50.956;6.962;2023-10-31T04:57:22;11.50;99.90
5899;DHT22;2975;50.956;6.962;2023-10-31T04:59:48;11.60;99.90
5899;DHT22;2975;50.956;6.962;2023-10-31T05:02:14;11.60;99.90
5899;DHT22;2975;50.956;6.962;2023-10-31T05:04:39;11.60;99.90
5899;DHT22;2975;50.956;6.962;2023-10-31T05:07:05;11.60;99.90
5899;DHT22;2975;50.956;6.962;2023-10-31T05:09:31;11.70;99.90
5899;DHT22;2975;50.956;6.962;2023-10-31T05:11:57;11.70;99.90
5899;DHT22;2975;50.956;6.962;2023-10-31T05:14:22;11.70;99.90
5899;DHT22;2975;50.956;6.962;2023-10-31T05:16:48;11.70;99.90
5899;DHT22;2975;50.956;6.962;2023-10-31T05:19:13;11.70;99.90
5899;DHT22;2975;50.956;6.962;2023-10-31T05:21:39;11.70;99.90
5899;DHT22;2975;50.956;6.962;2023-10-31T05:24:05;11.70;99.90
5899;DHT22;2975;50.956;6.962;2023-10-31T05:26:31;11.70;99.90
5899;DHT22;2975;50.956;6.962;2023-10-31T05:28:57;11.70;99.90
5899;DHT22;2975;50.956;6.962;2023-10-31T05:31:23;11.70;99.90
5899;DHT22;2975;50.956;6.962;2023-10-31T05:33:50;11.80;99.90
5899;DHT22;2975;50.956;6.962;2023-10-31T05:36:24;11.80;99.90
5899;DHT22;2975;50.956;6.962;2023-10-31T05:38:49;11.80;99.90
5899;DHT22;2975;50.956;6.962;2023-10-31T05:41:15;11.70;99.90
5899;DHT22;2975;50.956;6.962;2023-10-31T05:43:41;11.70;99.90
5899;DHT22;2975;50.956;6.962;2023-10-31T05:46:07;11.70;99.90
5899;DHT22;2975;50.956;6.962;2023-10-31T05:48:37;11.70;99.90
5899;DHT22;2975;50.956;6.962;2023-10-31T05:51:04;11.70;99.90
5899;DHT22;2975;50.956;6.962;2023-10-31T05:53:30;11.70;99.90
5899;DHT22;2975;50.956;6.962;2023-10-31T05:55:58;11.70;99.90
5899;DHT22;2975;50.956;6.962;2023-10-31T05:58:23;11.70;99.90
5899;DHT22;2975;50.956;6.962;2023-10-31T06:00:49;11.70;99.90
5899;DHT22;2975;50.956;6.962;2023-10-31T06:03:14;11.60;99.90
5899;DHT22;2975;50.956;6.962;2023-10-31T06:05:40;11.70;99.90
5899;DHT22;2975;50.956;6.962;2023-10-31T06:08:05;11.70;99.90
5899;DHT22;2975;50.956;6.962;2023-10-31T06:10:31;11.70;99.90
5899;DHT22;2975;50.956;6.962;2023-10-31T06:12:59;11.70;99.90
5899;DHT22;2975;50.956;6.962;2023-10-31T06:15:24;11.80;99.90
5899;DHT22;2975;50.956;6.962;2023-10-31T06:17:50;11.70;99.90
5899;DHT22;2975;50.956;6.962;2023-10-31T06:20:15;11.70;99.90
5899;DHT22;2975;50.956;6.962;2023-10-31T06:22:41;11.70;99.90
5899;DHT22;2975;50.956;6.962;2023-10-31T06:25:07;11.70;99.90
5899;DHT22;2975;50.956;6.962;2023-10-31T06:27:32;11.70;99.90
5899;DHT22;2975;50.956;6.962;2023-10-31T06:29:58;11.70;99.90
5899;DHT22;2975;50.956;6.962;2023-10-31T06:32:23;11.70;99.90
5899;DHT22;2975;50.956;6.962;2023-10-31T06:34:49;11.70;99.90
5899;DHT22;2975;50.956;6.962;2023-10-31T06:37:14;11.70;99.90
5899;DHT22;2975;50.956;6.962;2023-10-31T06:39:40;11.60;99.90
5899;DHT22;2975;50.956;6.962;2023-10-31T06:42:06;11.70;99.90
5899;DHT22;2975;50.956;6.962;2023-10-31T06:44:32;11.70;99.90
5899;DHT22;2975;50.956;6.962;2023-10-31T06:46:57;11.70;99.90
5899;DHT22;2975;50.956;6.962;2023-10-31T06:49:23;11.60;99.90
5899;DHT22;2975;50.956;6.962;2023-10-31T06:51:49;11.60;99.90
5899;DHT22;2975;50.956;6.962;2023-10-31T06:54:15;11.50;99.90
5899;DHT22;2975;50.956;6.962;2023-10-31T06:56:40;11.40;99.90
5899;DHT22;2975;50.956;6.962;2023-10-31T06:59:06;11.50;99.90
5899;DHT22;2975;50.956;6.962;2023-10-31T07:01:32;11.50;99.90
5899;DHT22;2975;50.956;6.962;2023-10-31T07:03:57;11.50;99.90
5899;DHT22;2975;50.956;6.962;2023-10-31T07:06:23;11.60;99.90
5899;DHT22;2975;50.956;6.962;2023-10-31T07:08:48;11.60;99.90
5899;DHT22;2975;50.956;6.962;2023-10-31T07:11:14;11.70;99.90
5899;DHT22;2975;50.956;6.962;2023-10-31T07:13:39;11.70;99.90
5899;DHT22;2975;50.956;6.962;2023-10-31T07:16:05;11.70;99.90
5899;DHT22;2975;50.956;6.962;2023-10-31T07:18:31;11.80;99.90
5899;DHT22;2975;50.956;6.962;2023-10-31T07:20:57;11.80;99.90
5899;DHT22;2975;50.956;6.962;2023-10-31T07:23:23;11.80;99.90
5899;DHT22;2975;50.956;6.962;2023-10-31T07:25:48;11.70;99.90
5899;DHT22;2975;50.956;6.962;2023-10-31T07:28:14;11.80;99.90
5899;DHT22;2975;50.956;6.962;2023-10-31T07:30:40;11.80;99.90
5899;DHT22;2975;50.956;6.962;2023-10-31T07:33:05;11.90;99.90
5899;DHT22;2975;50.956;6.962;2023-10-31T07:35:31;11.90;99.90
5899;DHT22;2975;50.956;6.962;2023-10-31T07:37:56;11.90;99.90
5899;DHT22;2975;50.956;6.962;2023-10-31T07:40:22;11.90;99.90
5899;DHT22;2975;50.956;6.962;2023-10-31T07:42:48;11.90;99.90
5899;DHT22;2975;50.956;6.962;2023-10-31T07:45:13;11.90;99.90
5899;DHT22;2975;50.956;6.962;2023-10-31T07:47:39;11.90;99.90
5899;DHT22;2975;50.956;6.962;2023-10-31T07:50:05;11.90;99.90
5899;DHT22;2975;50.956;6.962;2023-10-31T07:52:31;11.90;99.90
5899;DHT22;2975;50.956;6.962;2023-10-31T07:54:56;11.90;99.90
5899;DHT22;2975;50.956;6.962;2023-10-31T07:57:22;11.90;99.90
5899;DHT22;2975;50.956;6.962;2023-10-31T07:59:48;11.80;99.90
5899;DHT22;2975;50.956;6.962;2023-10-31T08:02:13;11.80;99.90
5899;DHT22;2975;50.956;6.962;2023-10-31T08:04:39;11.80;99.90
5899;DHT22;2975;50.956;6.962;2023-10-31T08:07:04;11.80;99.90
5899;DHT22;2975;50.956;6.962;2023-10-31T08:09:30;11.90;99.90
5899;DHT22;2975;50.956;6.962;2023-10-31T08:11:55;12.00;99.90
5899;DHT22;2975;50.956;6.962;2023-10-31T08:14:21;12.00;99.90
5899;DHT22;2975;50.956;6.962;2023-10-31T08:16:47;12.00;99.90
5899;DHT22;2975;50.956;6.962;2023-10-31T08:19:13;12.10;99.90
5899;DHT22;2975;50.956;6.962;2023-10-31T08:21:39;12.30;99.90
5899;DHT22;2975;50.956;6.962;2023-10-31T08:24:05;12.60;99.90
5899;DHT22;2975;50.956;6.962;2023-10-31T08:26:32;12.80;99.90
5899;DHT22;2975;50.956;6.962;2023-10-31T08:28:58;12.80;99.90
5899;DHT22;2975;50.956;6.962;2023-10-31T08:31:23;12.80;99.90
5899;DHT22;2975;50.956;6.962;2023-10-31T08:33:49;12.90;99.90
5899;DHT22;2975;50.956;6.962;2023-10-31T08:36:15;12.90;99.90
5899;DHT22;2975;50.956;6.962;2023-10-31T08:38:40;13.10;99.90
5899;DHT22;2975;50.956;6.962;2023-10-31T08:41:06;13.20;99.90
5899;DHT22;2975;50.956;6.962;2023-10-31T08:43:32;13.30;99.90
5899;DHT22;2975;50.956;6.962;2023-10-31T08:45:57;13.40;99.90
5899;DHT22;2975;50.956;6.962;2023-10-31T08:48:23;13.30;99.90
5899;DHT22;2975;50.956;6.962;2023-10-31T08:50:48;13.30;99.90
5899;DHT22;2975;50.956;6.962;2023-10-31T08:53:14;13.20;99.90
5899;DHT22;2975;50.956;6.962;2023-10-31T08:55:40;13.20;99.90
5899;DHT22;2975;50.956;6.962;2023-10-31T08:58:12;13.30;99.90
5899;DHT22;2975;50.956;6.962;2023-10-31T09:00:43;13.30;99.90
5899;DHT22;2975;50.956;6.962;2023-10-31T09:03:09;13.40;99.90
5899;DHT22;2975;50.956;6.962;2023-10-31T09:05:35;13.30;99.90
5899;DHT22;2975;50.956;6.962;2023-10-31T09:08:00;13.30;99.90
5899;DHT22;2975;50.956;6.962;2023-10-31T09:10:26;13.40;99.90
5899;DHT22;2975;50.956;6.962;2023-10-31T09:12:52;13.40;99.90
5899;DHT22;2975;50.956;6.962;2023-10-31T09:15:17;13.50;99.90
5899;DHT22;2975;50.956;6.962;2023-10-31T09:17:44;13.60;99.90
5899;DHT22;2975;50.956;6.962;2023-10-31T09:20:10;13.60;99.90
5899;DHT22;2975;50.956;6.962;2023-10-31T09:22:37;13.60;99.90
5899;DHT22;2975;50.956;6.962;2023-10-31T09:25:02;13.60;99.90
5899;DHT22;2975;50.956;6.962;2023-10-31T09:27:28;13.70;99.90
5899;DHT22;2975;50.956;6.962;2023-10-31T09:29:54;13.70;99.90
5899;DHT22;2975;50.956;6.962;2023-10-31T09:32:19;13.70;99.90
5899;DHT22;2975;50.956;6.962;2023-10-31T09:34:45;13.80;99.90
5899;DHT22;2975;50.956;6.962;2023-10-31T09:37:11;13.90;99.90
5899;DHT22;2975;50.956;6.962;2023-10-31T09:39:36;14.00;99.90
5899;DHT22;2975;50.956;6.962;2023-10-31T09:42:02;14.10;99.90
5899;DHT22;2975;50.956;6.962;2023-10-31T09:44:28;14.10;99.90
5899;DHT22;2975;50.956;6.962;2023-10-31T09:46:53;14.10;99.90
5899;DHT22;2975;50.956;6.962;2023-10-31T09:49:19;14.20;99.90
5899;DHT22;2975;50.956;6.962;2023-10-31T09:51:47;14.40;99.90
5899;DHT22;2975;50.956;6.962;2023-10-31T09:54:13;14.50;99.90
5899;DHT22;2975;50.956;6.962;2023-10-31T09:56:41;14.60;99.90
5899;DHT22;2975;50.956;6.962;2023-10-31T09:59:07;14.60;99.90
5899;DHT22;2975;50.956;6.962;2023-10-31T10:01:33;14.60;99.90
5899;DHT22;2975;50.956;6.962;2023-10-31T10:03:58;14.70;99.90
5899;DHT22;2975;50.956;6.962;2023-10-31T10:06:24;14.70;99.90
5899;DHT22;2975;50.956;6.962;2023-10-31T10:08:50;14.80;99.90
5899;DHT22;2975;50.956;6.962;2023-10-31T10:11:16;14.90;99.90
5899;DHT22;2975;50.956;6.962;2023-10-31T10:13:41;14.90;99.90
5899;DHT22;2975;50.956;6.962;2023-10-31T10:16:08;14.80;99.90
5899;DHT22;2975;50.956;6.962;2023-10-31T10:18:36;14.80;99.90
5899;DHT22;2975;50.956;6.962;2023-10-31T10:21:05;14.90;99.90
5899;DHT22;2975;50.956;6.962;2023-10-31T10:23:31;14.90;99.90
5899;DHT22;2975;50.956;6.962;2023-10-31T10:25:58;14.90;99.90
5899;DHT22;2975;50.956;6.962;2023-10-31T10:28:25;15.00;99.90
5899;DHT22;2975;50.956;6.962;2023-10-31T10:30:52;15.10;99.90
5899;DHT22;2975;50.956;6.962;2023-10-31T10:33:18;15.10;99.90
5899;DHT22;2975;50.956;6.962;2023-10-31T10:35:44;15.20;99.90
5899;DHT22;2975;50.956;6.962;2023-10-31T10:38:13;15.30;99.90
5899;DHT22;2975;50.956;6.962;2023-10-31T10:40:47;15.40;99.90
5899;DHT22;2975;50.956;6.962;2023-10-31T10:43:20;15.40;99.90
5899;DHT22;2975;50.956;6.962;2023-10-31T10:45:46;15.60;99.90
5899;DHT22;2975;50.956;6.962;2023-10-31T10:48:15;15.60;99.90
5899;DHT22;2975;50.956;6.962;2023-10-31T10:50:43;15.70;99.90
5899;DHT22;2975;50.956;6.962;2023-10-31T10:55:45;15.60;99.90
5899;DHT22;2975;50.956;6.962;2023-10-31T10:58:26;15.50;99.90
5899;DHT22;2975;50.956;6.962;2023-10-31T11:00:53;15.50;99.90
5899;DHT22;2975;50.956;6.962;2023-10-31T11:03:22;15.40;99.90
5899;DHT22;2975;50.956;6.962;2023-10-31T11:05:49;15.40;99.90
5899;DHT22;2975;50.956;6.962;2023-10-31T11:08:16;15.50;99.90
5899;DHT22;2975;50.956;6.962;2023-10-31T11:10:42;15.70;99.90
5899;DHT22;2975;50.956;6.962;2023-10-31T11:13:08;15.90;99.50
5899;DHT22;2975;50.956;6.962;2023-10-31T11:15:35;16.00;98.90
5899;DHT22;2975;50.956;6.962;2023-10-31T11:18:02;15.90;98.40
5899;DHT22;2975;50.956;6.962;2023-10-31T11:20:29;15.90;98.80
5899;DHT22;2975;50.956;6.962;2023-10-31T11:22:56;15.80;98.50
5899;DHT22;2975;50.956;6.962;2023-10-31T11:25:25;15.70;99.00
5899;DHT22;2975;50.956;6.962;2023-10-31T11:27:51;15.60;99.10
5899;DHT22;2975;50.956;6.962;2023-10-31T11:30:30;15.50;99.40
5899;DHT22;2975;50.956;6.962;2023-10-31T11:33:00;15.40;99.80
5899;DHT22;2975;50.956;6.962;2023-10-31T11:35:29;15.30;99.90
5899;DHT22;2975;50.956;6.962;2023-10-31T11:38:06;15.20;99.90
5899;DHT22;2975;50.956;6.962;2023-10-31T11:41:21;15.30;99.90
5899;DHT22;2975;50.956;6.962;2023-10-31T11:43:22;15.30;99.90
5899;DHT22;2975;50.956;6.962;2023-10-31T11:45:48;15.40;99.90
5899;DHT22;2975;50.956;6.962;2023-10-31T11:48:14;15.40;99.90
5899;DHT22;2975;50.956;6.962;2023-10-31T11:50:40;15.50;99.90
5899;DHT22;2975;50.956;6.962;2023-10-31T11:53:11;15.50;99.90
5899;DHT22;2975;50.956;6.962;2023-10-31T11:55:42;15.40;99.90
5899;DHT22;2975;50.956;6.962;2023-10-31T12:00:44;15.40;99.90
5899;DHT22;2975;50.956;6.962;2023-10-31T12:03:10;15.50;99.90
5899;DHT22;2975;50.956;6.962;2023-10-31T12:05:36;15.60;99.90
5899;DHT22;2975;50.956;6.962;2023-10-31T12:08:01;15.70;99.90
5899;DHT22;2975;50.956;6.962;2023-10-31T12:10:29;15.80;99.90
5899;DHT22;2975;50.956;6.962;2023-10-31T12:12:57;15.80;99.90
5899;DHT22;2975;50.956;6.962;2023-10-31T12:15:24;15.80;99.90
5899;DHT22;2975;50.956;6.962;2023-10-31T12:17:49;15.80;99.50
5899;DHT22;2975;50.956;6.962;2023-10-31T12:20:16;15.80;99.80
5899;DHT22;2975;50.956;6.962;2023-10-31T12:22:42;15.80;99.60
5899;DHT22;2975;50.956;6.962;2023-10-31T12:25:10;15.70;99.50
5899;DHT22;2975;50.956;6.962;2023-10-31T12:27:46;15.80;99.90
5899;DHT22;2975;50.956;6.962;2023-10-31T12:30:13;15.80;99.80
5899;DHT22;2975;50.956;6.962;2023-10-31T12:32:42;15.80;99.80
5899;DHT22;2975;50.956;6.962;2023-10-31T12:35:13;15.80;99.80
5899;DHT22;2975;50.956;6.962;2023-10-31T12:37:46;15.90;99.70
5899;DHT22;2975;50.956;6.962;2023-10-31T12:40:22;15.90;99.30
5899;DHT22;2975;50.956;6.962;2023-10-31T12:42:49;16.10;99.30
5899;DHT22;2975;50.956;6.962;2023-10-31T12:45:15;16.20;99.50
5899;DHT22;2975;50.956;6.962;2023-10-31T12:47:42;16.30;98.70
5899;DHT22;2975;50.956;6.962;2023-10-31T12:50:17;16.30;98.40
5899;DHT22;2975;50.956;6.962;2023-10-31T12:52:50;16.20;98.40
5899;DHT22;2975;50.956;6.962;2023-10-31T12:55:18;16.20;98.30
5899;DHT22;2975;50.956;6.962;2023-10-31T12:57:44;16.00;99.40
5899;DHT22;2975;50.956;6.962;2023-10-31T13:00:12;16.00;99.10
5899;DHT22;2975;50.956;6.962;2023-10-31T13:02:39;16.00;99.10
5899;DHT22;2975;50.956;6.962;2023-10-31T13:05:13;15.80;98.80
5899;DHT22;2975;50.956;6.962;2023-10-31T13:07:39;15.60;99.90
5899;DHT22;2975;50.956;6.962;2023-10-31T13:10:07;15.40;99.90
5899;DHT22;2975;50.956;6.962;2023-10-31T13:12:35;15.20;99.90
5899;DHT22;2975;50.956;6.962;2023-10-31T13:15:01;15.00;99.90
5899;DHT22;2975;50.956;6.962;2023-10-31T13:17:27;15.00;99.90
5899;DHT22;2975;50.956;6.962;2023-10-31T13:19:53;14.90;99.90
5899;DHT22;2975;50.956;6.962;2023-10-31T13:22:18;14.90;99.90
5899;DHT22;2975;50.956;6.962;2023-10-31T13:24:44;15.00;99.90
5899;DHT22;2975;50.956;6.962;2023-10-31T13:27:12;15.20;99.90
5899;DHT22;2975;50.956;6.962;2023-10-31T13:29:41;15.40;99.90
5899;DHT22;2975;50.956;6.962;2023-10-31T13:32:07;15.50;99.90
5899;DHT22;2975;50.956;6.962;2023-10-31T13:34:34;15.50;99.90
5899;DHT22;2975;50.956;6.962;2023-10-31T13:36:59;15.50;99.90
5899;DHT22;2975;50.956;6.962;2023-10-31T13:39:25;15.30;99.90
5899;DHT22;2975;50.956;6.962;2023-10-31T13:41:51;15.30;99.90
5899;DHT22;2975;50.956;6.962;2023-10-31T13:44:16;15.20;99.90
5899;DHT22;2975;50.956;6.962;2023-10-31T13:46:42;15.10;99.90
5899;DHT22;2975;50.956;6.962;2023-10-31T13:49:08;14.90;99.90
5899;DHT22;2975;50.956;6.962;2023-10-31T13:51:34;14.90;99.90
5899;DHT22;2975;50.956;6.962;2023-10-31T13:54:00;14.80;99.90
5899;DHT22;2975;50.956;6.962;2023-10-31T13:56:25;14.80;99.90
5899;DHT22;2975;50.956;6.962;2023-10-31T13:58:51;14.80;99.90
5899;DHT22;2975;50.956;6.962;2023-10-31T14:01:16;14.80;99.90
5899;DHT22;2975;50.956;6.962;2023-10-31T14:03:42;14.80;99.90
5899;DHT22;2975;50.956;6.962;2023-10-31T14:06:08;14.70;99.90
5899;DHT22;2975;50.956;6.962;2023-10-31T14:08:34;14.60;99.90
5899;DHT22;2975;50.956;6.962;2023-10-31T14:11:00;14.60;99.90
5899;DHT22;2975;50.956;6.962;2023-10-31T14:13:28;14.50;99.90
5899;DHT22;2975;50.956;6.962;2023-10-31T14:15:53;14.50;99.90
5899;DHT22;2975;50.956;6.962;2023-10-31T14:18:19;14.50;99.90
5899;DHT22;2975;50.956;6.962;2023-10-31T14:20:44;14.40;99.90
5899;DHT22;2975;50.956;6.962;2023-10-31T14:23:10;14.40;99.90
5899;DHT22;2975;50.956;6.962;2023-10-31T14:25:36;14.30;99.90
5899;DHT22;2975;50.956;6.962;2023-10-31T14:28:01;14.30;99.90
5899;DHT22;2975;50.956;6.962;2023-10-31T14:30:27;14.30;99.90
5899;DHT22;2975;50.956;6.962;2023-10-31T14:32:52;14.20;99.90
5899;DHT22;2975;50.956;6.962;2023-10-31T14:35:18;14.20;99.90
5899;DHT22;2975;50.956;6.962;2023-10-31T14:37:44;14.20;99.90
5899;DHT22;2975;50.956;6.962;2023-10-31T14:40:09;14.20;99.90
5899;DHT22;2975;50.956;6.962;2023-10-31T14:42:35;14.20;99.90
5899;DHT22;2975;50.956;6.962;2023-10-31T14:45:01;14.30;99.90
5899;DHT22;2975;50.956;6.962;2023-10-31T14:47:27;14.40;99.90
5899;DHT22;2975;50.956;6.962;2023-10-31T14:49:52;14.50;99.90
5899;DHT22;2975;50.956;6.962;2023-10-31T14:52:18;14.50;99.90
5899;DHT22;2975;50.956;6.962;2023-10-31T14:54:44;14.50;99.90
5899;DHT22;2975;50.956;6.962;2023-10-31T14:57:10;14.50;99.90
5899;DHT22;2975;50.956;6.962;2023-10-31T14:59:35;14.60;99.90
5899;DHT22;2975;50.956;6.962;2023-10-31T15:02:01;14.60;99.90
5899;DHT22;2975;50.956;6.962;2023-10-31T15:04:26;14.70;99.90
5899;DHT22;2975;50.956;6.962;2023-10-31T15:06:52;14.70;99.90
5899;DHT22;2975;50.956;6.962;2023-10-31T15:09:18;14.60;99.90
5899;DHT22;2975;50.956;6.962;2023-10-31T15:11:44;14.70;99.90
5899;DHT22;2975;50.956;6.962;2023-10-31T15:14:10;14.60;99.90
5899;DHT22;2975;50.956;6.962;2023-10-31T15:16:36;14.60;99.90
5899;DHT22;2975;50.956;6.962;2023-10-31T15:19:02;14.50;99.90
5899;DHT22;2975;50.956;6.962;2023-10-31T15:21:27;14.50;99.90
5899;DHT22;2975;50.956;6.962;2023-10-31T15:23:53;14.40;99.90
5899;DHT22;2975;50.956;6.962;2023-10-31T15:26:19;14.40;99.90
5899;DHT22;2975;50.956;6.962;2023-10-31T15:28:45;14.40;99.90
5899;DHT22;2975;50.956;6.962;2023-10-31T15:31:11;14.40;99.90
5899;DHT22;2975;50.956;6.962;2023-10-31T15:33:36;14.40;99.90
5899;DHT22;2975;50.956;6.962;2023-10-31T15:36:02;14.30;99.90
5899;DHT22;2975;50.956;6.962;2023-10-31T15:38:28;14.30;99.90
5899;DHT22;2975;50.956;6.962;2023-10-31T15:40:54;14.30;99.90
5899;DHT22;2975;50.956;6.962;2023-10-31T15:43:19;14.30;99.90
5899;DHT22;2975;50.956;6.962;2023-10-31T15:45:45;14.20;99.90
5899;DHT22;2975;50.956;6.962;2023-10-31T15:48:12;14.20;99.90
5899;DHT22;2975;50.956;6.962;2023-10-31T15:50:39;14.20;99.90
5899;DHT22;2975;50.956;6.962;2023-10-31T15:53:04;14.20;99.90
5899;DHT22;2975;50.956;6.962;2023-10-31T15:55:30;14.20;99.90
5899;DHT22;2975;50.956;6.962;2023-10-31T15:57:56;14.10;99.90
5899;DHT22;2975;50.956;6.962;2023-10-31T16:00:23;14.10;99.90